sensor_id;sensor_type;location;lat;lon;timestamp;P1;durP1;ratioP1;P2;durP2;ratioP2
21412;SDS011;10867;45.084;5.732;2023-04-15T00:00:29;3.50;;;2.40;;
21412;SDS011;10867;45.084;5.732;2023-04-15T00:02:55;5.10;;;2.75;;
21412;SDS011;10867;45.084;5.732;2023-04-15T00:05:21;2.92;;;2.67;;
21412;SDS011;10867;45.084;5.732;2023-04-15T00:07:47;4.72;;;2.50;;
21412;SDS011;10867;45.084;5.732;2023-04-15T00:10:13;3.85;;;2.40;;
21412;SDS011;10867;45.084;5.732;2023-04-15T00:12:39;4.20;;;3.03;;
21412;SDS011;10867;45.084;5.732;2023-04-15T00:15:06;5.53;;;3.57;;
21412;SDS011;10867;45.084;5.732;2023-04-15T00:17:33;4.10;;;3.50;;
21412;SDS011;10867;45.084;5.732;2023-04-15T00:20:00;4.97;;;3.22;;
21412;SDS011;10867;45.084;5.732;2023-04-15T00:22:26;5.47;;;3.20;;
21412;SDS011;10867;45.084;5.732;2023-04-15T00:24:53;4.32;;;3.28;;
21412;SDS011;10867;45.084;5.732;2023-04-15T00:27:19;4.78;;;3.88;;
21412;SDS011;10867;45.084;5.732;2023-04-15T00:29:45;4.55;;;3.15;;
21412;SDS011;10867;45.084;5.732;2023-04-15T00:32:11;4.73;;;3.10;;
21412;SDS011;10867;45.084;5.732;2023-04-15T00:34:37;4.53;;;3.00;;
21412;SDS011;10867;45.084;5.732;2023-04-15T00:37:03;3.80;;;3.00;;
21412;SDS011;10867;45.084;5.732;2023-04-15T00:39:29;3.70;;;3.33;;
21412;SDS011;10867;45.084;5.732;2023-04-15T00:41:56;4.55;;;3.58;;
21412;SDS011;10867;45.084;5.732;2023-04-15T00:44:22;4.25;;;3.40;;
21412;SDS011;10867;45.084;5.732;2023-04-15T00:46:52;4.90;;;3.75;;
21412;SDS011;10867;45.084;5.732;2023-04-15T00:49:18;4.45;;;3.60;;
21412;SDS011;10867;45.084;5.732;2023-04-15T00:51:45;4.22;;;3.50;;
21412;SDS011;10867;45.084;5.732;2023-04-15T00:54:11;4.70;;;3.40;;
21412;SDS011;10867;45.084;5.732;2023-04-15T00:56:37;4.50;;;3.30;;
21412;SDS011;10867;45.084;5.732;2023-04-15T00:59:04;5.43;;;3.65;;
21412;SDS011;10867;45.084;5.732;2023-04-15T01:01:36;5.50;;;3.27;;
21412;SDS011;10867;45.084;5.732;2023-04-15T01:04:03;4.13;;;3.40;;
21412;SDS011;10867;45.084;5.732;2023-04-15T01:06:31;5.37;;;3.40;;
21412;SDS011;10867;45.084;5.732;2023-04-15T01:08:58;3.92;;;2.90;;
21412;SDS011;10867;45.084;5.732;2023-04-15T01:11:24;4.10;;;3.10;;
21412;SDS011;10867;45.084;5.732;2023-04-15T01:13:50;3.78;;;2.95;;
21412;SDS011;10867;45.084;5.732;2023-04-15T01:16:17;3.88;;;3.00;;
21412;SDS011;10867;45.084;5.732;2023-04-15T01:18:43;4.05;;;3.20;;
21412;SDS011;10867;45.084;5.732;2023-04-15T01:21:10;3.88;;;2.85;;
21412;SDS011;10867;45.084;5.732;2023-04-15T01:23:37;4.23;;;2.87;;
21412;SDS011;10867;45.084;5.732;2023-04-15T01:26:04;3.15;;;2.85;;
21412;SDS011;10867;45.084;5.732;2023-04-15T01:28:32;3.60;;;2.67;;
21412;SDS011;10867;45.084;5.732;2023-04-15T01:31:05;4.07;;;2.97;;
21412;SDS011;10867;45.084;5.732;2023-04-15T01:33:32;4.07;;;3.17;;
21412;SDS011;10867;45.084;5.732;2023-04-15T01:35:58;4.68;;;3.15;;
21412;SDS011;10867;45.084;5.732;2023-04-15T01:38:25;3.88;;;3.05;;
21412;SDS011;10867;45.084;5.732;2023-04-15T01:40:52;3.50;;;3.20;;
21412;SDS011;10867;45.084;5.732;2023-04-15T01:43:18;4.85;;;3.10;;
21412;SDS011;10867;45.084;5.732;2023-04-15T01:45:44;4.85;;;3.40;;
21412;SDS011;10867;45.084;5.732;2023-04-15T01:48:11;3.97;;;3.20;;
21412;SDS011;10867;45.084;5.732;2023-04-15T01:50:37;5.30;;;3.50;;
21412;SDS011;10867;45.084;5.732;2023-04-15T01:53:03;5.05;;;3.25;;
21412;SDS011;10867;45.084;5.732;2023-04-15T01:55:29;4.07;;;3.30;;
21412;SDS011;10867;45.084;5.732;2023-04-15T01:57:56;3.40;;;3.10;;
21412;SDS011;10867;45.084;5.732;2023-04-15T02:00:22;4.10;;;3.20;;
21412;SDS011;10867;45.084;5.732;2023-04-15T02:02:49;4.90;;;3.40;;
21412;SDS011;10867;45.084;5.732;2023-04-15T02:05:15;3.13;;;2.60;;
21412;SDS011;10867;45.084;5.732;2023-04-15T02:07:41;2.50;;;1.90;;
21412;SDS011;10867;45.084;5.732;2023-04-15T02:10:08;3.85;;;2.00;;
21412;SDS011;10867;45.084;5.732;2023-04-15T02:12:35;3.08;;;1.80;;
21412;SDS011;10867;45.084;5.732;2023-04-15T02:15:01;3.13;;;1.70;;
21412;SDS011;10867;45.084;5.732;2023-04-15T02:17:27;3.05;;;1.63;;
21412;SDS011;10867;45.084;5.732;2023-04-15T02:19:54;3.63;;;1.70;;
21412;SDS011;10867;45.084;5.732;2023-04-15T02:22:21;2.38;;;1.60;;
21412;SDS011;10867;45.084;5.732;2023-04-15T02:24:47;2.47;;;1.88;;
21412;SDS011;10867;45.084;5.732;2023-04-15T02:27:16;3.92;;;1.98;;
21412;SDS011;10867;45.084;5.732;2023-04-15T02:29:43;3.83;;;1.60;;
21412;SDS011;10867;45.084;5.732;2023-04-15T02:32:10;4.40;;;1.70;;
21412;SDS011;10867;45.084;5.732;2023-04-15T02:34:36;2.10;;;1.50;;
21412;SDS011;10867;45.084;5.732;2023-04-15T02:37:05;3.13;;;1.70;;
21412;SDS011;10867;45.084;5.732;2023-04-15T02:39:31;2.78;;;1.55;;
21412;SDS011;10867;45.084;5.732;2023-04-15T02:41:58;5.15;;;1.60;;
21412;SDS011;10867;45.084;5.732;2023-04-15T02:44:25;2.70;;;1.50;;
21412;SDS011;10867;45.084;5.732;2023-04-15T02:46:51;2.15;;;1.27;;
21412;SDS011;10867;45.084;5.732;2023-04-15T02:49:22;2.97;;;1.40;;
21412;SDS011;10867;45.084;5.732;2023-04-15T02:51:48;2.25;;;1.23;;
21412;SDS011;10867;45.084;5.732;2023-04-15T02:54:20;2.03;;;1.20;;
21412;SDS011;10867;45.084;5.732;2023-04-15T02:56:50;2.55;;;1.33;;
21412;SDS011;10867;45.084;5.732;2023-04-15T02:59:19;1.90;;;1.20;;
21412;SDS011;10867;45.084;5.732;2023-04-15T03:01:45;2.20;;;1.30;;
21412;SDS011;10867;45.084;5.732;2023-04-15T03:04:11;2.67;;;1.30;;
21412;SDS011;10867;45.084;5.732;2023-04-15T03:06:38;2.08;;;1.10;;
21412;SDS011;10867;45.084;5.732;2023-04-15T03:09:04;1.85;;;1.30;;
21412;SDS011;10867;45.084;5.732;2023-04-15T03:11:31;3.80;;;1.40;;
21412;SDS011;10867;45.084;5.732;2023-04-15T03:13:57;2.17;;;1.40;;
21412;SDS011;10867;45.084;5.732;2023-04-15T03:16:24;2.00;;;1.30;;
21412;SDS011;10867;45.084;5.732;2023-04-15T03:18:50;2.45;;;1.30;;
21412;SDS011;10867;45.084;5.732;2023-04-15T03:21:16;2.00;;;1.10;;
21412;SDS011;10867;45.084;5.732;2023-04-15T03:23:44;2.17;;;1.30;;
21412;SDS011;10867;45.084;5.732;2023-04-15T03:26:11;3.17;;;1.30;;
21412;SDS011;10867;45.084;5.732;2023-04-15T03:28:48;1.87;;;1.20;;
21412;SDS011;10867;45.084;5.732;2023-04-15T03:31:14;2.67;;;1.43;;
21412;SDS011;10867;45.084;5.732;2023-04-15T03:33:40;1.93;;;1.23;;
21412;SDS011;10867;45.084;5.732;2023-04-15T03:36:06;3.28;;;1.40;;
21412;SDS011;10867;45.084;5.732;2023-04-15T03:38:33;2.38;;;1.38;;
21412;SDS011;10867;45.084;5.732;2023-04-15T03:40:59;2.10;;;1.40;;
21412;SDS011;10867;45.084;5.732;2023-04-15T03:43:25;2.37;;;1.60;;
21412;SDS011;10867;45.084;5.732;2023-04-15T03:45:51;2.15;;;1.38;;
21412;SDS011;10867;45.084;5.732;2023-04-15T03:48:17;1.70;;;1.30;;
21412;SDS011;10867;45.084;5.732;2023-04-15T03:50:44;2.97;;;1.50;;
21412;SDS011;10867;45.084;5.732;2023-04-15T03:53:10;2.80;;;1.60;;
21412;SDS011;10867;45.084;5.732;2023-04-15T03:55:37;3.03;;;1.90;;
21412;SDS011;10867;45.084;5.732;2023-04-15T03:58:03;2.17;;;1.60;;
21412;SDS011;10867;45.084;5.732;2023-04-15T04:00:30;3.15;;;1.50;;
21412;SDS011;10867;45.084;5.732;2023-04-15T04:02:56;1.75;;;1.60;;
21412;SDS011;10867;45.084;5.732;2023-04-15T04:05:22;4.15;;;1.63;;
21412;SDS011;10867;45.084;5.732;2023-04-15T04:07:48;2.42;;;1.83;;
21412;SDS011;10867;45.084;5.732;2023-04-15T04:10:15;2.92;;;1.77;;
21412;SDS011;10867;45.084;5.732;2023-04-15T04:12:41;2.67;;;1.85;;
21412;SDS011;10867;45.084;5.732;2023-04-15T04:15:07;2.50;;;1.50;;
21412;SDS011;10867;45.084;5.732;2023-04-15T04:17:33;3.28;;;1.33;;
21412;SDS011;10867;45.084;5.732;2023-04-15T04:20:00;1.50;;;1.20;;
21412;SDS011;10867;45.084;5.732;2023-04-15T04:22:26;1.88;;;1.30;;
21412;SDS011;10867;45.084;5.732;2023-04-15T04:24:52;1.38;;;1.15;;
21412;SDS011;10867;45.084;5.732;2023-04-15T04:27:18;1.60;;;1.20;;
21412;SDS011;10867;45.084;5.732;2023-04-15T04:29:44;2.90;;;1.15;;
21412;SDS011;10867;45.084;5.732;2023-04-15T04:32:12;1.42;;;1.00;;
21412;SDS011;10867;45.084;5.732;2023-04-15T04:34:38;2.28;;;1.20;;
21412;SDS011;10867;45.084;5.732;2023-04-15T04:37:06;3.38;;;1.30;;
21412;SDS011;10867;45.084;5.732;2023-04-15T04:39:33;3.00;;;1.13;;
21412;SDS011;10867;45.084;5.732;2023-04-15T04:41:59;1.33;;;1.00;;
21412;SDS011;10867;45.084;5.732;2023-04-15T04:44:25;4.90;;;1.20;;
21412;SDS011;10867;45.084;5.732;2023-04-15T04:46:53;2.30;;;1.02;;
21412;SDS011;10867;45.084;5.732;2023-04-15T04:49:20;1.85;;;1.20;;
21412;SDS011;10867;45.084;5.732;2023-04-15T04:51:46;1.60;;;1.40;;
21412;SDS011;10867;45.084;5.732;2023-04-15T04:54:15;2.42;;;1.40;;
21412;SDS011;10867;45.084;5.732;2023-04-15T04:56:41;1.42;;;1.13;;
21412;SDS011;10867;45.084;5.732;2023-04-15T04:59:07;1.63;;;1.20;;
21412;SDS011;10867;45.084;5.732;2023-04-15T05:01:34;2.00;;;1.20;;
21412;SDS011;10867;45.084;5.732;2023-04-15T05:04:00;4.00;;;3.13;;
21412;SDS011;10867;45.084;5.732;2023-04-15T05:06:28;5.13;;;3.90;;
21412;SDS011;10867;45.084;5.732;2023-04-15T05:08:55;22.83;;;8.43;;
21412;SDS011;10867;45.084;5.732;2023-04-15T05:11:21;68.93;;;21.70;;
21412;SDS011;10867;45.084;5.732;2023-04-15T05:13:49;19.97;;;7.20;;
21412;SDS011;10867;45.084;5.732;2023-04-15T05:16:16;32.93;;;10.40;;
21412;SDS011;10867;45.084;5.732;2023-04-15T05:18:43;154.48;;;56.92;;
21412;SDS011;10867;45.084;5.732;2023-04-15T05:21:10;83.32;;;33.10;;
21412;SDS011;10867;45.084;5.732;2023-04-15T05:23:36;24.33;;;9.88;;
21412;SDS011;10867;45.084;5.732;2023-04-15T05:26:02;40.65;;;15.57;;
21412;SDS011;10867;45.084;5.732;2023-04-15T05:28:49;13.63;;;5.47;;
21412;SDS011;10867;45.084;5.732;2023-04-15T05:31:15;40.75;;;13.73;;
21412;SDS011;10867;45.084;5.732;2023-04-15T05:33:41;30.90;;;10.73;;
21412;SDS011;10867;45.084;5.732;2023-04-15T05:36:07;19.00;;;7.63;;
21412;SDS011;10867;45.084;5.732;2023-04-15T05:38:36;29.30;;;11.57;;
21412;SDS011;10867;45.084;5.732;2023-04-15T05:41:12;25.70;;;11.32;;
21412;SDS011;10867;45.084;5.732;2023-04-15T05:43:47;16.73;;;7.10;;
21412;SDS011;10867;45.084;5.732;2023-04-15T05:46:13;16.25;;;7.22;;
21412;SDS011;10867;45.084;5.732;2023-04-15T05:48:40;7.28;;;4.03;;
21412;SDS011;10867;45.084;5.732;2023-04-15T05:51:06;3.40;;;2.00;;
21412;SDS011;10867;45.084;5.732;2023-04-15T05:53:37;6.82;;;3.00;;
21412;SDS011;10867;45.084;5.732;2023-04-15T05:56:12;22.40;;;8.95;;
21412;SDS011;10867;45.084;5.732;2023-04-15T05:58:41;27.23;;;10.98;;
21412;SDS011;10867;45.084;5.732;2023-04-15T06:01:12;25.77;;;10.67;;
21412;SDS011;10867;45.084;5.732;2023-04-15T06:03:43;18.67;;;7.85;;
21412;SDS011;10867;45.084;5.732;2023-04-15T06:06:17;20.20;;;8.55;;
21412;SDS011;10867;45.084;5.732;2023-04-15T06:08:47;5.90;;;2.77;;
21412;SDS011;10867;45.084;5.732;2023-04-15T06:11:15;6.53;;;3.20;;
21412;SDS011;10867;45.084;5.732;2023-04-15T06:13:41;7.78;;;3.67;;
21412;SDS011;10867;45.084;5.732;2023-04-15T06:16:27;5.95;;;2.20;;
21412;SDS011;10867;45.084;5.732;2023-04-15T06:18:59;2.88;;;1.60;;
21412;SDS011;10867;45.084;5.732;2023-04-15T06:21:33;7.00;;;3.13;;
21412;SDS011;10867;45.084;5.732;2023-04-15T06:24:08;4.63;;;1.70;;
21412;SDS011;10867;45.084;5.732;2023-04-15T06:26:35;5.15;;;1.98;;
21412;SDS011;10867;45.084;5.732;2023-04-15T06:29:01;4.10;;;2.85;;
21412;SDS011;10867;45.084;5.732;2023-04-15T06:31:46;3.50;;;2.60;;
21412;SDS011;10867;45.084;5.732;2023-04-15T06:34:22;5.65;;;4.13;;
21412;SDS011;10867;45.084;5.732;2023-04-15T06:36:59;3.38;;;2.60;;
21412;SDS011;10867;45.084;5.732;2023-04-15T06:39:34;5.65;;;3.00;;
21412;SDS011;10867;45.084;5.732;2023-04-15T06:42:01;4.43;;;2.20;;
21412;SDS011;10867;45.084;5.732;2023-04-15T06:44:30;3.08;;;2.45;;
21412;SDS011;10867;45.084;5.732;2023-04-15T06:47:11;3.58;;;3.05;;
21412;SDS011;10867;45.084;5.732;2023-04-15T06:49:39;2.95;;;1.90;;
21412;SDS011;10867;45.084;5.732;2023-04-15T06:52:08;3.73;;;2.23;;
21412;SDS011;10867;45.084;5.732;2023-04-15T06:54:37;4.05;;;2.40;;
21412;SDS011;10867;45.084;5.732;2023-04-15T06:57:04;2.60;;;1.80;;
21412;SDS011;10867;45.084;5.732;2023-04-15T06:59:31;2.83;;;1.80;;
21412;SDS011;10867;45.084;5.732;2023-04-15T07:01:57;2.73;;;1.70;;
21412;SDS011;10867;45.084;5.732;2023-04-15T07:04:23;3.30;;;1.80;;
21412;SDS011;10867;45.084;5.732;2023-04-15T07:06:49;4.27;;;2.00;;
21412;SDS011;10867;45.084;5.732;2023-04-15T07:09:20;1.90;;;1.70;;
21412;SDS011;10867;45.084;5.732;2023-04-15T07:11:47;2.65;;;1.70;;
21412;SDS011;10867;45.084;5.732;2023-04-15T07:14:17;2.85;;;1.63;;
21412;SDS011;10867;45.084;5.732;2023-04-15T07:16:48;1.83;;;1.60;;
21412;SDS011;10867;45.084;5.732;2023-04-15T07:19:16;3.10;;;1.97;;
21412;SDS011;10867;45.084;5.732;2023-04-15T07:21:54;2.20;;;1.80;;
21412;SDS011;10867;45.084;5.732;2023-04-15T07:24:20;3.85;;;2.10;;
21412;SDS011;10867;45.084;5.732;2023-04-15T07:26:53;2.40;;;2.20;;
21412;SDS011;10867;45.084;5.732;2023-04-15T07:29:30;2.92;;;2.58;;
21412;SDS011;10867;45.084;5.732;2023-04-15T07:32:03;4.50;;;3.20;;
21412;SDS011;10867;45.084;5.732;2023-04-15T07:34:34;7.15;;;4.03;;
21412;SDS011;10867;45.084;5.732;2023-04-15T07:37:10;5.07;;;4.03;;
21412;SDS011;10867;45.084;5.732;2023-04-15T07:40:02;5.47;;;4.97;;
21412;SDS011;10867;45.084;5.732;2023-04-15T07:43:00;6.05;;;4.88;;
21412;SDS011;10867;45.084;5.732;2023-04-15T07:45:54;4.32;;;2.72;;
21412;SDS011;10867;45.084;5.732;2023-04-15T07:48:53;2.88;;;2.00;;
21412;SDS011;10867;45.084;5.732;2023-04-15T07:51:31;2.40;;;1.40;;
21412;SDS011;10867;45.084;5.732;2023-04-15T07:54:27;2.17;;;1.73;;
21412;SDS011;10867;45.084;5.732;2023-04-15T07:57:21;2.55;;;1.33;;
21412;SDS011;10867;45.084;5.732;2023-04-15T08:03:36;1.58;;;1.17;;
21412;SDS011;10867;45.084;5.732;2023-04-15T08:06:09;1.70;;;1.20;;
21412;SDS011;10867;45.084;5.732;2023-04-15T08:18:10;5.10;;;1.70;;
21412;SDS011;10867;45.084;5.732;2023-04-15T08:20:41;1.73;;;0.95;;
21412;SDS011;10867;45.084;5.732;2023-04-15T08:23:07;3.10;;;1.10;;
21412;SDS011;10867;45.084;5.732;2023-04-15T08:25:34;1.15;;;0.90;;
21412;SDS011;10867;45.084;5.732;2023-04-15T08:28:02;1.58;;;0.90;;
21412;SDS011;10867;45.084;5.732;2023-04-15T08:30:31;1.30;;;0.70;;
21412;SDS011;10867;45.084;5.732;2023-04-15T08:33:02;3.20;;;1.80;;
21412;SDS011;10867;45.084;5.732;2023-04-15T08:35:28;2.00;;;1.88;;
21412;SDS011;10867;45.084;5.732;2023-04-15T08:37:54;4.50;;;3.57;;
21412;SDS011;10867;45.084;5.732;2023-04-15T08:40:20;4.38;;;2.80;;
21412;SDS011;10867;45.084;5.732;2023-04-15T08:42:55;7.00;;;3.13;;
21412;SDS011;10867;45.084;5.732;2023-04-15T08:45:42;8.80;;;6.18;;
21412;SDS011;10867;45.084;5.732;2023-04-15T08:48:21;10.73;;;5.27;;
21412;SDS011;10867;45.084;5.732;2023-04-15T08:50:53;6.83;;;3.60;;
21412;SDS011;10867;45.084;5.732;2023-04-15T08:53:20;7.10;;;3.70;;
21412;SDS011;10867;45.084;5.732;2023-04-15T08:55:50;3.97;;;2.40;;
21412;SDS011;10867;45.084;5.732;2023-04-15T08:58:16;5.85;;;3.22;;
21412;SDS011;10867;45.084;5.732;2023-04-15T09:00:51;4.10;;;2.30;;
21412;SDS011;10867;45.084;5.732;2023-04-15T09:03:29;3.97;;;2.10;;
21412;SDS011;10867;45.084;5.732;2023-04-15T09:05:58;5.75;;;3.58;;
21412;SDS011;10867;45.084;5.732;2023-04-15T09:08:27;6.95;;;3.80;;
21412;SDS011;10867;45.084;5.732;2023-04-15T09:11:13;6.72;;;4.40;;
21412;SDS011;10867;45.084;5.732;2023-04-15T09:13:49;3.65;;;2.97;;
21412;SDS011;10867;45.084;5.732;2023-04-15T09:16:16;3.30;;;1.70;;
21412;SDS011;10867;45.084;5.732;2023-04-15T09:18:45;2.70;;;1.50;;
21412;SDS011;10867;45.084;5.732;2023-04-15T09:21:12;4.53;;;2.60;;
21412;SDS011;10867;45.084;5.732;2023-04-15T09:26:33;2.50;;;1.50;;
21412;SDS011;10867;45.084;5.732;2023-04-15T09:29:06;2.75;;;1.60;;
21412;SDS011;10867;45.084;5.732;2023-04-15T09:31:32;2.40;;;1.40;;
21412;SDS011;10867;45.084;5.732;2023-04-15T09:34:01;3.40;;;1.73;;
21412;SDS011;10867;45.084;5.732;2023-04-15T09:36:27;5.57;;;3.80;;
21412;SDS011;10867;45.084;5.732;2023-04-15T09:38:58;5.05;;;2.00;;
21412;SDS011;10867;45.084;5.732;2023-04-15T09:41:27;4.03;;;2.67;;
21412;SDS011;10867;45.084;5.732;2023-04-15T09:43:58;3.50;;;1.50;;
21412;SDS011;10867;45.084;5.732;2023-04-15T09:46:42;7.93;;;1.98;;
21412;SDS011;10867;45.084;5.732;2023-04-15T09:49:13;2.88;;;2.10;;
21412;SDS011;10867;45.084;5.732;2023-04-15T09:52:02;2.28;;;1.80;;
21412;SDS011;10867;45.084;5.732;2023-04-15T09:54:56;4.88;;;2.63;;
21412;SDS011;10867;45.084;5.732;2023-04-15T09:57:23;3.67;;;2.50;;
21412;SDS011;10867;45.084;5.732;2023-04-15T10:00:05;4.07;;;2.28;;
21412;SDS011;10867;45.084;5.732;2023-04-15T10:02:32;4.35;;;2.35;;
21412;SDS011;10867;45.084;5.732;2023-04-15T10:04:59;2.38;;;1.98;;
21412;SDS011;10867;45.084;5.732;2023-04-15T10:07:28;2.00;;;1.40;;
21412;SDS011;10867;45.084;5.732;2023-04-15T10:09:55;1.80;;;0.80;;
21412;SDS011;10867;45.084;5.732;2023-04-15T10:12:48;3.00;;;0.70;;
21412;SDS011;10867;45.084;5.732;2023-04-15T10:15:17;1.27;;;0.60;;
21412;SDS011;10867;45.084;5.732;2023-04-15T10:17:46;1.20;;;0.50;;
21412;SDS011;10867;45.084;5.732;2023-04-15T10:20:12;0.82;;;0.50;;
21412;SDS011;10867;45.084;5.732;2023-04-15T10:22:45;0.40;;;0.30;;
21412;SDS011;10867;45.084;5.732;2023-04-15T10:25:14;1.13;;;0.40;;
21412;SDS011;10867;45.084;5.732;2023-04-15T10:27:58;1.38;;;0.60;;
21412;SDS011;10867;45.084;5.732;2023-04-15T10:30:26;0.70;;;0.50;;
21412;SDS011;10867;45.084;5.732;2023-04-15T10:33:10;2.35;;;0.82;;
21412;SDS011;10867;45.084;5.732;2023-04-15T10:35:47;0.55;;;0.50;;
21412;SDS011;10867;45.084;5.732;2023-04-15T10:41:30;0.80;;;0.50;;
21412;SDS011;10867;45.084;5.732;2023-04-15T10:44:24;3.42;;;0.50;;
21412;SDS011;10867;45.084;5.732;2023-04-15T10:47:12;2.03;;;1.43;;
21412;SDS011;10867;45.084;5.732;2023-04-15T10:50:01;1.30;;;1.17;;
21412;SDS011;10867;45.084;5.732;2023-04-15T10:55:46;1.00;;;0.70;;
21412;SDS011;10867;45.084;5.732;2023-04-15T10:58:44;1.30;;;0.65;;
21412;SDS011;10867;45.084;5.732;2023-04-15T11:01:19;3.13;;;2.13;;
21412;SDS011;10867;45.084;5.732;2023-04-15T11:03:57;1.58;;;1.48;;
21412;SDS011;10867;45.084;5.732;2023-04-15T11:06:23;1.40;;;1.00;;
21412;SDS011;10867;45.084;5.732;2023-04-15T11:09:29;2.13;;;1.65;;
21412;SDS011;10867;45.084;5.732;2023-04-15T11:14:54;1.77;;;1.50;;
21412;SDS011;10867;45.084;5.732;2023-04-15T11:17:29;1.45;;;0.93;;
21412;SDS011;10867;45.084;5.732;2023-04-15T11:19:55;1.23;;;1.00;;
21412;SDS011;10867;45.084;5.732;2023-04-15T11:22:54;1.40;;;1.30;;
21412;SDS011;10867;45.084;5.732;2023-04-15T11:26:03;2.08;;;1.92;;
21412;SDS011;10867;45.084;5.732;2023-04-15T11:28:49;1.60;;;0.80;;
21412;SDS011;10867;45.084;5.732;2023-04-15T12:02:17;2.03;;;1.02;;
21412;SDS011;10867;45.084;5.732;2023-04-15T12:05:07;1.27;;;0.52;;
21412;SDS011;10867;45.084;5.732;2023-04-15T12:10:32;1.40;;;0.82;;
21412;SDS011;10867;45.084;5.732;2023-04-15T12:13:00;0.40;;;0.40;;
21412;SDS011;10867;45.084;5.732;2023-04-15T12:15:31;0.40;;;0.40;;
21412;SDS011;10867;45.084;5.732;2023-04-15T12:17:59;1.00;;;0.40;;
21412;SDS011;10867;45.084;5.732;2023-04-15T12:20:43;1.20;;;0.43;;
21412;SDS011;10867;45.084;5.732;2023-04-15T12:23:27;0.50;;;0.40;;
21412;SDS011;10867;45.084;5.732;2023-04-15T12:29:25;0.57;;;0.45;;
21412;SDS011;10867;45.084;5.732;2023-04-15T12:31:52;0.68;;;0.50;;
21412;SDS011;10867;45.084;5.732;2023-04-15T12:40:12;1.35;;;0.40;;
21412;SDS011;10867;45.084;5.732;2023-04-15T12:42:41;1.30;;;0.50;;
21412;SDS011;10867;45.084;5.732;2023-04-15T12:45:15;1.90;;;0.70;;
21412;SDS011;10867;45.084;5.732;2023-04-15T12:47:48;0.57;;;0.55;;
21412;SDS011;10867;45.084;5.732;2023-04-15T12:50:14;1.10;;;0.80;;
21412;SDS011;10867;45.084;5.732;2023-04-15T12:52:42;1.20;;;0.68;;
21412;SDS011;10867;45.084;5.732;2023-04-15T12:55:08;1.30;;;0.70;;
21412;SDS011;10867;45.084;5.732;2023-04-15T12:57:34;1.25;;;0.80;;
21412;SDS011;10867;45.084;5.732;2023-04-15T13:00:01;1.67;;;0.98;;
21412;SDS011;10867;45.084;5.732;2023-04-15T13:02:34;2.20;;;2.00;;
21412;SDS011;10867;45.084;5.732;2023-04-15T13:05:00;4.93;;;3.55;;
21412;SDS011;10867;45.084;5.732;2023-04-15T13:07:27;3.50;;;3.20;;
21412;SDS011;10867;45.084;5.732;2023-04-15T13:09:53;1.40;;;1.23;;
21412;SDS011;10867;45.084;5.732;2023-04-15T13:12:25;1.87;;;1.50;;
21412;SDS011;10867;45.084;5.732;2023-04-15T13:17:49;2.15;;;0.95;;
21412;SDS011;10867;45.084;5.732;2023-04-15T13:20:20;2.13;;;1.20;;
21412;SDS011;10867;45.084;5.732;2023-04-15T13:22:46;2.67;;;1.23;;
21412;SDS011;10867;45.084;5.732;2023-04-15T13:25:12;2.13;;;1.70;;
21412;SDS011;10867;45.084;5.732;2023-04-15T13:27:38;1.73;;;1.00;;
21412;SDS011;10867;45.084;5.732;2023-04-15T13:33:11;1.70;;;1.07;;
21412;SDS011;10867;45.084;5.732;2023-04-15T13:36:39;1.50;;;1.00;;
21412;SDS011;10867;45.084;5.732;2023-04-15T13:42:52;1.10;;;0.60;;
21412;SDS011;10867;45.084;5.732;2023-04-15T13:49:05;0.90;;;0.68;;
21412;SDS011;10867;45.084;5.732;2023-04-15T14:04:22;0.80;;;0.70;;
21412;SDS011;10867;45.084;5.732;2023-04-15T14:13:56;1.35;;;0.75;;
21412;SDS011;10867;45.084;5.732;2023-04-15T14:19:15;0.70;;;0.60;;
21412;SDS011;10867;45.084;5.732;2023-04-15T14:21:54;0.65;;;0.50;;
21412;SDS011;10867;45.084;5.732;2023-04-15T14:24:23;0.60;;;0.50;;
21412;SDS011;10867;45.084;5.732;2023-04-15T14:27:12;1.45;;;0.90;;
21412;SDS011;10867;45.084;5.732;2023-04-15T14:29:38;1.87;;;0.80;;
21412;SDS011;10867;45.084;5.732;2023-04-15T14:32:13;0.90;;;0.80;;
21412;SDS011;10867;45.084;5.732;2023-04-15T14:35:24;1.67;;;1.20;;
21412;SDS011;10867;45.084;5.732;2023-04-15T14:38:18;1.58;;;0.75;;
21412;SDS011;10867;45.084;5.732;2023-04-15T14:41:01;0.68;;;0.68;;
21412;SDS011;10867;45.084;5.732;2023-04-15T14:46:59;3.03;;;2.50;;
21412;SDS011;10867;45.084;5.732;2023-04-15T14:49:25;2.85;;;1.88;;
21412;SDS011;10867;45.084;5.732;2023-04-15T14:51:54;2.25;;;1.35;;
21412;SDS011;10867;45.084;5.732;2023-04-15T14:54:20;0.80;;;0.80;;
21412;SDS011;10867;45.084;5.732;2023-04-15T14:57:11;1.80;;;1.00;;
21412;SDS011;10867;45.084;5.732;2023-04-15T14:59:46;1.00;;;0.80;;
21412;SDS011;10867;45.084;5.732;2023-04-15T15:02:15;9.13;;;1.10;;
21412;SDS011;10867;45.084;5.732;2023-04-15T15:04:50;0.77;;;0.60;;
21412;SDS011;10867;45.084;5.732;2023-04-15T15:07:33;2.40;;;1.42;;
21412;SDS011;10867;45.084;5.732;2023-04-15T15:20:17;4.43;;;2.72;;
21412;SDS011;10867;45.084;5.732;2023-04-15T15:23:19;2.72;;;1.60;;
21412;SDS011;10867;45.084;5.732;2023-04-15T15:32:37;0.93;;;0.60;;
21412;SDS011;10867;45.084;5.732;2023-04-15T17:41:27;1.40;;;1.02;;
21412;SDS011;10867;45.084;5.732;2023-04-15T17:48:06;1.48;;;0.80;;
21412;SDS011;10867;45.084;5.732;2023-04-15T18:07:39;0.70;;;0.70;;
21412;SDS011;10867;45.084;5.732;2023-04-15T18:13:37;1.13;;;0.90;;
21412;SDS011;10867;45.084;5.732;2023-04-15T18:16:04;1.10;;;0.85;;
21412;SDS011;10867;45.084;5.732;2023-04-15T18:18:39;1.02;;;0.93;;
21412;SDS011;10867;45.084;5.732;2023-04-15T18:55:53;1.17;;;1.02;;
21412;SDS011;10867;45.084;5.732;2023-04-15T18:58:48;1.42;;;1.00;;
21412;SDS011;10867;45.084;5.732;2023-04-15T19:04:23;0.82;;;0.80;;
21412;SDS011;10867;45.084;5.732;2023-04-15T19:16:58;4.22;;;2.55;;
21412;SDS011;10867;45.084;5.732;2023-04-15T19:20:25;2.85;;;1.95;;
21412;SDS011;10867;45.084;5.732;2023-04-15T19:23:17;2.42;;;1.65;;
21412;SDS011;10867;45.084;5.732;2023-04-15T19:26:06;3.83;;;2.60;;
21412;SDS011;10867;45.084;5.732;2023-04-15T19:35:38;1.40;;;0.80;;
21412;SDS011;10867;45.084;5.732;2023-04-15T19:41:36;2.05;;;1.30;;
21412;SDS011;10867;45.084;5.732;2023-04-15T19:44:21;2.13;;;1.30;;
21412;SDS011;10867;45.084;5.732;2023-04-15T19:47:08;1.30;;;1.20;;
21412;SDS011;10867;45.084;5.732;2023-04-15T19:52:54;1.60;;;1.50;;
21412;SDS011;10867;45.084;5.732;2023-04-15T19:55:20;2.37;;;2.17;;
21412;SDS011;10867;45.084;5.732;2023-04-15T20:00:35;2.17;;;1.50;;
21412;SDS011;10867;45.084;5.732;2023-04-15T20:09:51;1.37;;;1.27;;
21412;SDS011;10867;45.084;5.732;2023-04-15T20:12:40;1.70;;;1.20;;
21412;SDS011;10867;45.084;5.732;2023-04-15T20:15:08;1.60;;;1.33;;
21412;SDS011;10867;45.084;5.732;2023-04-15T20:17:48;1.50;;;1.40;;
21412;SDS011;10867;45.084;5.732;2023-04-15T20:20:23;1.80;;;1.20;;
21412;SDS011;10867;45.084;5.732;2023-04-15T20:22:49;1.35;;;1.20;;
21412;SDS011;10867;45.084;5.732;2023-04-15T20:28:52;2.00;;;1.40;;
21412;SDS011;10867;45.084;5.732;2023-04-15T20:31:31;1.30;;;1.20;;
21412;SDS011;10867;45.084;5.732;2023-04-15T20:34:23;1.60;;;1.50;;
21412;SDS011;10867;45.084;5.732;2023-04-15T20:37:04;2.13;;;1.80;;
21412;SDS011;10867;45.084;5.732;2023-04-15T20:42:58;1.50;;;1.30;;
21412;SDS011;10867;45.084;5.732;2023-04-15T20:45:24;1.70;;;1.40;;
21412;SDS011;10867;45.084;5.732;2023-04-15T20:47:59;2.10;;;1.30;;
21412;SDS011;10867;45.084;5.732;2023-04-15T20:50:34;1.48;;;1.38;;
21412;SDS011;10867;45.084;5.732;2023-04-15T20:53:00;2.33;;;1.47;;
21412;SDS011;10867;45.084;5.732;2023-04-15T20:55:28;2.40;;;1.38;;
21412;SDS011;10867;45.084;5.732;2023-04-15T20:57:58;1.50;;;0.90;;
21412;SDS011;10867;45.084;5.732;2023-04-15T21:00:58;1.20;;;1.10;;
21412;SDS011;10867;45.084;5.732;2023-04-15T21:07:30;1.60;;;1.20;;
21412;SDS011;10867;45.084;5.732;2023-04-15T21:13:08;2.90;;;2.42;;